Terminal Aerodrome Forecast
Issued by NWS

Current Version | Previous Version | Text Only | Print | Product List | Glossary Off
Versions: 1 2 3 4 5 6 7 8 9 10 11 12 13 14 15 16 17 18 19 20

000
FTUS41 KILN 201736
TAFLUK
TAF
KLUK 201736Z 2018/2118 23008G14KT P6SM OVC035
     FM210500 17004KT P6SM BKN025
     FM210800 17005KT P6SM OVC015
     FM210900 18005KT 5SM BR OVC012
     FM211500 18007KT P6SM BKN025=

USA.gov is the U.S. government's official web portal to all federal, state and local government web resources and services.